Latest Weather Observations for Sydney - Observatory Hill

IDN60801

Issued at 9:04 am EST Tuesday 3 May 2016 (issued every 30 minutes, with the page automatically refreshed every 10 minutes)

About weather observations | Map of weather stations | Latest weather observations for NSW | Other Formats
Station Details ID: 066062 Name: SYDNEY (OBSERVATORY HILL) Lat: -33.86 Lon: 151.21 Height: 39.0 m
Data from the previous 72 hours. | See also: Recent months at Sydney - Observatory Hill

* Apparent temperature (App Temp) for Sydney - Observatory Hill is calculated using temperature observations collected at Sydney - Observatory Hill and wind observations collected at Fort Denison, as wind observations are not currently provided for Sydney - Observatory Hill.

Date/Time
EST
Temp
°C
App
Temp
°C
Dew
Point
Rel
Hum
%
Delta-T
°C
Wind Press
QNH
hPa
Press
MSL
hPa
Rain
since 9 am
mm
Dir
 
Spd
km/h
Gust
km/h
Spd
kts
Gust
kts
03/09:00am 16.0 13.6 8.5 61 3.8 W 11 - 6 - 1012.6 1012.6 0.0
03/08:30am 15.4 13.3 8.2 62 3.6 WNW 9 - 5 - 1012.7 1012.7 0.0
03/08:00am 15.4 13.7 8.2 62 3.6 WNW 7 - 4 - 1012.8 1012.8 0.0
03/07:30am 14.4 12.3 8.4 67 3.0 WNW 9 - 5 - 1012.9 1012.9 0.0
03/07:00am 13.2 10.3 8.1 71 2.5 W 13 - 7 - 1012.4 1012.4 0.0
03/06:30am 12.9 9.6 8.0 72 2.4 W 15 - 8 - 1012.2 1012.2 0.0
03/06:00am 13.2 10.1 8.9 75 2.2 WNW 15 - 8 - 1012.2 1012.2 0.0
03/05:30am 13.2 10.4 8.5 73 2.3 W 13 - 7 - 1011.9 1011.9 0.0
03/05:00am 13.3 11.3 8.6 73 2.4 W 9 - 5 - 1011.7 1011.7 0.0
03/04:30am 13.6 11.8 8.0 69 2.8 WNW 7 - 4 - 1011.7 1011.7 0.0
03/04:00am 13.8 11.5 7.6 66 3.1 W 9 - 5 - 1011.3 1011.3 0.0
03/03:30am 13.9 12.1 8.1 68 2.9 WNW 7 - 4 - 1011.3 1011.3 0.0
03/03:00am 14.1 11.8 7.6 65 3.2 WNW 9 - 5 - 1011.5 1011.5 0.0
03/02:30am 14.6 11.0 8.5 67 3.1 WNW 17 - 9 - 1011.6 1011.6 0.0
03/02:00am 15.0 12.4 7.8 62 3.6 WNW 11 - 6 - 1011.9 1011.9 0.0
03/01:30am 15.7 12.8 8.2 61 3.8 W 13 - 7 - 1012.6 1012.6 0.0
03/01:00am 16.3 13.3 7.5 56 4.4 W 13 - 7 - 1012.6 1012.6 0.0
03/12:30am 16.0 13.9 9.7 66 3.3 W 11 - 6 - 1012.8 1012.8 0.0
03/12:00am 16.4 14.6 9.3 63 3.7 W 9 - 5 - 1013.3 1013.3 0.0
 
Date/Time
EST
Temp
°C
App
Temp
°C
Dew
Point
Rel
Hum
%
Delta-T
°C
Wind Press
QNH
hPa
Press
MSL
hPa
Rain
since 9 am
mm
Dir
 
Spd
km/h
Gust
km/h
Spd
kts
Gust
kts
02/11:30pm 17.3 16.3 9.0 58 4.3 NW 4 - 2 - 1013.6 1013.6 0.0
02/11:00pm 17.7 16.5 6.3 47 5.6 SW 2 - 1 - 1013.8 1013.8 0.0
02/10:30pm 18.0 16.3 5.9 45 5.9 SSW 4 - 2 - 1013.6 1013.6 0.0
02/10:00pm 18.1 14.8 6.6 47 5.7 W 13 - 7 - 1014.1 1014.1 0.0
02/09:30pm 18.1 14.6 7.2 49 5.5 WNW 15 - 8 - 1013.9 1013.9 0.0
02/09:00pm 18.2 15.4 8.5 53 5.0 NW 13 - 7 - 1013.7 1013.7 0.0
02/08:30pm 18.5 15.4 9.0 54 5.0 NW 15 - 8 - 1013.7 1013.7 0.0
02/08:00pm 19.1 16.7 8.7 51 5.4 WNW 11 - 6 - 1013.5 1013.5 0.0
02/07:30pm 19.7 17.5 9.3 51 5.5 NW 11 - 6 - 1013.4 1013.4 0.0
02/07:00pm 19.8 17.8 10.2 54 5.2 NNW 11 - 6 - 1013.3 1013.3 0.0
02/06:30pm 20.0 19.3 10.1 53 5.3 W 4 - 2 - 1012.8 1012.8 0.0
02/06:00pm 20.2 18.9 11.4 57 4.9 NNW 9 - 5 - 1012.4 1012.4 0.0
02/05:30pm 20.5 20.4 13.2 63 4.2 NNW 6 - 3 - 1012.0 1012.0 0.0
02/05:00pm 20.6 22.1 14.7 69 3.5 CALM 0 - 0 - 1011.8 1011.8 0.0
02/04:30pm 20.9 21.3 14.8 68 3.6 E 6 - 3 - 1011.9 1011.9 0.0
02/04:00pm 20.9 21.1 14.1 65 4.0 ENE 6 - 3 - 1012.2 1012.2 0.0
02/03:30pm 21.0 20.8 13.7 63 4.2 NNE 7 - 4 - 1012.5 1012.5 0.0
02/03:00pm 21.2 20.5 13.1 60 4.6 NE 9 - 5 - 1012.2 1012.2 0.0
02/02:30pm 20.9 19.5 13.4 62 4.3 ENE 13 - 7 - 1012.2 1012.2 0.0
02/02:00pm 20.6 18.2 12.8 61 4.4 ENE 17 - 9 - 1012.3 1012.3 0.0
02/01:30pm 20.8 17.9 12.2 58 4.8 ENE 19 - 10 - 1012.5 1012.5 0.0
02/01:00pm 21.0 19.0 11.6 55 5.2 E 13 - 7 - 1013.1 1013.1 0.0
02/12:30pm 21.2 19.8 11.0 52 5.6 ESE 9 - 5 - 1014.1 1014.1 0.0
02/12:00pm 20.3 17.3 9.2 49 5.9 E 15 - 8 - 1014.0 1014.0 0.0
02/11:30am 20.0 18.0 8.7 48 5.9 E 9 - 5 - 1014.5 1014.5 0.0
02/11:00am 19.1 17.3 7.8 48 5.8 ESE 7 - 4 - 1015.2 1015.2 0.0
02/10:30am 18.4 17.5 7.8 50 5.4 ESE 2 - 1 - 1015.9 1015.9 0.0
02/10:00am 17.3 14.9 7.1 51 5.1 W 9 - 5 - 1016.4 1016.4 0.0
02/09:30am 16.8 - 7.7 55 4.6 - - - - - 1016.9 1016.9 0.0
02/09:00am 16.3 14.4 7.5 56 4.4 NW 7 - 4 - 1017.3 1017.3 0.0
02/08:30am 16.1 13.6 6.5 53 4.7 W 9 - 5 - 1017.5 1017.5 0.0
02/08:00am 16.2 12.3 5.5 49 5.1 W 15 - 8 - 1017.5 1017.5 0.0
02/07:30am 15.5 12.0 5.4 51 4.8 W 13 - 7 - 1017.4 1017.4 0.0
02/07:00am 14.4 12.3 6.5 59 3.8 W 7 - 4 - 1017.3 1017.3 0.0
02/06:30am 14.2 12.0 7.7 65 3.2 WNW 9 - 5 - 1017.3 1017.3 0.0
02/06:00am 14.5 11.1 5.8 56 4.1 W 13 - 7 - 1017.0 1017.0 0.0
02/05:30am 14.2 11.5 7.5 64 3.3 W 11 - 6 - 1016.9 1016.9 0.0
02/05:00am 14.4 12.7 7.5 63 3.4 WNW 6 - 3 - 1016.7 1016.7 0.0
02/04:30am 14.6 12.4 6.4 58 4.0 W 7 - 4 - 1016.3 1016.3 0.0
02/04:00am 15.1 12.5 6.1 55 4.3 W 9 - 5 - 1016.1 1016.1 0.0
02/03:30am 15.7 13.4 5.6 51 4.8 WNW 7 - 4 - 1016.0 1016.0 0.0
02/03:00am 15.7 12.3 5.9 52 4.7 W 13 - 7 - 1015.7 1015.7 0.0
02/02:30am 16.1 12.7 6.0 51 4.9 W 13 - 7 - 1015.8 1015.8 0.0
02/02:00am 16.3 14.7 6.2 51 4.9 WSW 4 - 2 - 1015.9 1015.9 0.0
02/01:30am 16.6 14.0 6.1 50 5.1 W 9 - 5 - 1015.6 1015.6 0.0
02/01:00am 17.2 13.1 6.4 49 5.3 W 17 - 9 - 1015.4 1015.4 0.0
02/12:30am 17.5 14.6 6.4 48 5.5 WSW 11 - 6 - 1015.4 1015.4 0.0
02/12:00am 18.1 13.5 6.6 47 5.7 SW 20 - 11 - 1015.6 1015.6 0.0
 
Date/Time
EST
Temp
°C
App
Temp
°C
Dew
Point
Rel
Hum
%
Delta-T
°C
Wind Press
QNH
hPa
Press
MSL
hPa
Rain
since 9 am
mm
Dir
 
Spd
km/h
Gust
km/h
Spd
kts
Gust
kts
01/11:30pm 18.6 14.9 6.4 45 6.1 WSW 15 - 8 - 1015.6 1015.6 0.0
01/11:00pm 19.1 14.0 6.2 43 6.4 WSW 22 - 12 - 1015.6 1015.6 0.0
01/10:30pm 19.9 15.9 6.6 42 6.7 WSW 17 - 9 - 1015.4 1015.4 0.0
01/10:00pm 20.7 15.4 6.6 40 7.1 W 24 - 13 - 1015.1 1015.1 0.0
01/09:30pm 21.1 16.7 6.6 39 7.4 WSW 19 - 10 - 1015.1 1015.1 0.0
01/09:00pm 21.8 17.9 6.9 38 7.6 WSW 17 - 9 - 1014.2 1014.2 0.0
01/08:30pm 22.5 17.1 6.3 35 8.2 W 24 - 13 - 1013.6 1013.6 0.0
01/08:00pm 22.8 19.5 6.6 35 8.3 WSW 13 - 7 - 1013.1 1013.1 0.0
01/07:30pm 22.7 20.8 6.5 35 8.3 WNW 6 - 3 - 1012.5 1012.5 0.0
01/07:00pm 23.6 19.7 8.5 38 8.1 W 19 - 10 - 1011.9 1011.9 0.0
01/06:30pm 23.0 21.8 12.9 53 5.8 W 11 - 6 - 1011.8 1011.8 0.0
01/06:00pm 22.9 21.5 13.4 55 5.5 NW 13 - 7 - 1011.3 1011.3 0.0
01/05:30pm 23.0 21.6 13.5 55 5.5 NNW 13 - 7 - 1010.9 1010.9 0.0
01/05:00pm 24.0 22.5 14.1 54 5.8 NNW 15 - 8 - 1010.5 1010.5 0.0
01/04:30pm 24.9 22.6 14.7 53 6.1 N 20 - 11 - 1010.0 1010.0 0.0
01/04:00pm 25.1 21.9 14.3 51 6.4 N 24 - 13 - 1009.7 1009.7 0.0
01/03:30pm 25.3 22.6 14.7 51 6.3 N 22 - 12 - 1009.7 1009.7 0.0
01/03:00pm 25.4 23.5 15.7 55 5.9 N 20 - 11 - 1009.6 1009.6 0.0
01/02:30pm 25.5 22.6 16.1 56 5.8 NNW 26 - 14 - 1009.8 1009.8 0.0
01/02:00pm 25.7 22.5 15.4 53 6.3 NNW 26 - 14 - 1009.8 1009.8 0.0
01/01:30pm 25.5 21.8 16.1 56 5.8 NNW 30 - 16 - 1009.8 1009.8 0.0
01/01:00pm 24.4 21.3 16.6 61 4.8 NNW 28 - 15 - 1010.3 1010.3 0.0
01/12:30pm 22.3 19.1 16.3 69 3.6 NNW 28 - 15 - 1010.8 1010.8 0.0
01/12:00pm 21.9 17.9 16.2 70 3.4 NNW 32 - 17 - 1011.7 1011.7 0.0
01/11:30am 21.8 18.7 16.5 72 3.2 NNW 28 - 15 - 1012.4 1012.4 0.0
01/11:00am 21.2 20.2 16.6 75 2.8 NNW 17 - 9 - 1013.0 1013.0 0.0
01/10:30am 20.9 19.9 16.5 76 2.7 NNW 17 - 9 - 1013.2 1013.2 0.0
01/10:00am 20.7 19.4 16.7 78 2.4 N 19 - 10 - 1013.3 1013.3 0.0
01/09:30am 20.3 19.0 16.9 81 2.1 NNW 19 - 10 - 1013.3 1013.2 0.0
01/09:00am 19.4 18.2 17.0 86 1.5 N 19 - 10 - 1013.7 1013.6 2.8
01/08:30am 19.2 17.4 17.0 87 1.3 NNW 22 - 12 - 1014.3 1014.2 2.8
01/08:00am 19.1 16.9 16.9 87 1.3 NNW 24 - 13 - 1013.8 1013.7 2.2
01/07:30am 18.9 17.4 16.7 87 1.3 NNW 20 - 11 - 1014.4 1014.3 1.6
01/07:00am 18.4 18.8 16.2 87 1.3 W 9 - 5 - 1014.5 1014.4 1.0
01/06:30am 18.1 17.4 15.5 85 1.5 WNW 13 - 7 - 1014.0 1013.9 0.6
01/06:00am 18.5 16.3 14.8 79 2.2 W 20 - 11 - 1013.4 1013.3 0.2
01/05:30am 19.2 19.3 15.5 79 2.2 NNW 9 - 5 - 1012.4 1012.3 0.2
01/05:00am 19.2 18.8 15.3 78 2.3 NNW 11 - 6 - 1012.2 1012.1 0.2
01/04:30am 19.5 19.3 15.6 78 2.3 NNW 11 - 6 - 1012.6 1012.5 0.2
01/04:00am 19.3 19.8 15.6 79 2.2 NW 7 - 4 - 1012.8 1012.7 0.2
01/03:30am 19.2 19.3 15.5 79 2.2 NW 9 - 5 - 1013.0 1012.9 0.2
01/03:00am 19.1 19.2 15.6 80 2.1 NNW 9 - 5 - 1013.1 1013.0 0.2
01/02:30am 18.9 19.3 15.4 80 2.1 WNW 7 - 4 - 1013.4 1013.3 0.2
01/02:00am 19.3 20.0 15.6 79 2.2 WNW 6 - 3 - 1013.5 1013.4 0.2
01/01:30am 19.2 19.9 15.7 80 2.1 WNW 6 - 3 - 1014.0 1013.9 0.2
01/01:00am 19.5 20.2 15.6 78 2.3 NW 6 - 3 - 1014.2 1014.1 0.0
01/12:30am 19.6 19.8 15.7 78 2.3 W 9 - 5 - 1014.9 1014.8 0.0
01/12:00am 19.8 21.0 15.9 78 2.3 WNW 4 - 2 - 1015.0 1014.9 0.0
 
Date/Time
EST
Temp
°C
App
Temp
°C
Dew
Point
Rel
Hum
%
Delta-T
°C
Wind Press
QNH
hPa
Press
MSL
hPa
Rain
since 9 am
mm
Dir
 
Spd
km/h
Gust
km/h
Spd
kts
Gust
kts
30/11:30pm 20.1 20.0 16.1 78 2.4 W 11 - 6 - 1015.6 1015.5 0.0
30/11:00pm 20.3 22.0 16.1 77 2.5 WNW 2 - 1 - 1015.6 1015.5 0.0
30/10:30pm 20.4 21.7 16.2 77 2.5 NW 4 - 2 - 1016.0 1015.9 0.0
30/10:00pm 20.6 21.4 16.4 77 2.5 NW 7 - 4 - 1016.1 1016.0 0.0
30/09:30pm 20.7 21.6 16.5 77 2.5 NNW 7 - 4 - 1016.6 1016.5 0.0
30/09:00pm 21.0 21.8 16.4 75 2.8 NNW 7 - 4 - 1016.7 1016.6 0.0
30/08:30pm 21.3 21.9 16.7 75 2.8 NNW 9 - 5 - 1016.7 1016.6 0.0
30/08:00pm 21.5 23.4 16.7 74 2.9 NNW 2 - 1 - 1016.7 1016.6 0.0
30/07:30pm 21.8 23.5 17.2 75 2.8 ENE 4 - 2 - 1016.5 1016.4 0.0
30/07:00pm 21.8 24.0 16.5 72 3.2 CALM 0 - 0 - 1016.4 1016.3 0.0
30/06:30pm 22.2 23.8 16.9 72 3.2 N 4 - 2 - 1016.2 1016.1 0.0
30/06:00pm 22.3 22.1 16.6 70 3.5 N 13 - 7 - 1016.1 1016.0 0.0
30/05:30pm 22.9 23.9 16.4 67 4.0 NNE 6 - 3 - 1016.0 1015.9 0.0
30/05:00pm 23.1 23.6 16.6 67 4.0 NE 9 - 5 - 1015.8 1015.7 0.0
30/04:30pm 23.8 23.9 15.6 60 4.9 E 9 - 5 - 1015.8 1015.7 0.0
30/04:00pm 24.5 25.9 15.4 57 5.5 NNE 2 - 1 - 1015.7 1015.6 0.0
30/03:30pm 26.2 27.4 15.9 53 6.3 WSW 4 - 2 - 1015.7 1015.6 0.0
30/03:00pm 26.0 26.3 16.0 54 6.1 WNW 9 - 5 - 1015.7 1015.6 0.0
30/02:30pm 24.7 24.7 15.3 56 5.7 W 9 - 5 - 1015.8 1015.7 0.0
30/02:00pm 24.2 23.6 15.7 59 5.1 NW 13 - 7 - 1015.8 1015.7 0.0
30/01:30pm 23.6 22.9 15.4 60 4.9 WNW 13 - 7 - 1015.9 1015.8 0.0
30/01:00pm 24.3 23.4 15.8 59 5.2 NNW 15 - 8 - 1016.1 1016.0 0.0
30/12:30pm 24.3 22.6 14.7 55 5.7 N 17 - 9 - 1016.4 1016.3 0.0
30/12:00pm 23.7 21.5 14.4 56 5.5 N 19 - 10 - 1017.0 1016.9 0.0
30/11:30am 23.7 22.6 15.2 59 5.1 N 15 - 8 - 1017.5 1017.4 0.0
30/11:00am 22.9 22.8 16.0 65 4.2 NNW 11 - 6 - 1017.9 1017.8 0.0
30/10:30am 22.1 23.7 15.9 68 3.7 NW 2 - 1 - 1018.4 1018.4 0.0
30/10:00am 21.9 23.6 16.2 70 3.4 NE 2 - 1 - 1018.6 1018.6 0.0
30/09:30am 20.9 22.5 15.9 73 3.0 NE 2 - 1 - 1018.6 1018.6 0.0

Other Formats:

Comma delimited format used in spreadsheet applications
http://www.bom.gov.au/fwo/IDN60801/IDN60801.94768.axf

JavaScript Object Notation format (JSON) in row-major order
http://www.bom.gov.au/fwo/IDN60801/IDN60801.94768.json